Time;durP1;ratioP1;P1;durP2;ratioP2;P2;SDS_P1;SDS_P2;PMS_P1;PMS_P2;Temp;Humidity;BMP_temperature;BMP_pressure;BME280_temperature;BME280_humidity;BME280_pressure;Samples;Min_cycle;Max_cycle;Signal;HPM_P1;HPM_P2
2022/12/12 00:02:24;;;;;;;21.73;14.48;;;0.60;99.90;;;;;;5093938;28;20487;-82
2022/12/12 00:04:50;;;;;;;22.92;14.27;;;0.50;99.90;;;;;;5081374;28;20371;-83
2022/12/12 00:07:16;;;;;;;20.65;13.80;;;0.60;99.90;;;;;;5469050;22;20127;-75
2022/12/12 00:09:41;;;;;;;23.48;14.60;;;0.60;99.90;;;;;;5129145;22;20733;-81
2022/12/12 00:12:08;;;;;;;21.08;14.38;;;0.60;99.90;;;;;;5075400;28;20041;-81
2022/12/12 00:14:33;;;;;;;19.25;13.32;;;0.60;99.90;;;;;;5047040;28;20067;-81
2022/12/12 00:16:59;;;;;;;18.98;13.15;;;0.60;99.90;;;;;;5061400;28;20148;-81
2022/12/12 00:19:25;;;;;;;19.98;13.48;;;0.60;99.90;;;;;;5087749;28;20045;-81
2022/12/12 00:21:50;;;;;;;20.05;13.23;;;0.60;99.90;;;;;;5068174;28;20209;-81
2022/12/12 00:24:16;;;;;;;19.92;12.32;;;0.60;99.90;;;;;;5052844;28;20052;-81
2022/12/12 00:26:42;;;;;;;19.08;12.90;;;0.60;99.90;;;;;;5040090;28;20047;-81
2022/12/12 00:29:09;;;;;;;19.67;12.35;;;0.60;99.90;;;;;;5078728;28;20047;-81
2022/12/12 00:31:34;;;;;;;18.98;12.63;;;0.60;99.90;;;;;;5052829;28;20137;-81
2022/12/12 00:34:00;;;;;;;19.92;12.57;;;0.60;99.90;;;;;;5055899;28;20491;-81
2022/12/12 00:36:29;;;;;;;19.42;12.77;;;0.60;99.90;;;;;;5061545;28;20046;-81
2022/12/12 00:38:55;;;;;;;19.40;12.68;;;0.60;99.90;;;;;;5103007;28;20046;-81
2022/12/12 00:41:21;;;;;;;19.20;13.30;;;0.60;99.90;;;;;;5075411;28;20450;-81
2022/12/12 00:43:47;;;;;;;17.45;12.48;;;0.60;99.90;;;;;;5065610;28;20430;-80
2022/12/12 00:46:18;;;;;;;19.33;13.50;;;0.60;99.90;;;;;;5083469;28;20032;-81
2022/12/12 00:48:44;;;;;;;19.27;13.15;;;0.60;99.90;;;;;;5057824;28;20049;-81
2022/12/12 00:51:14;;;;;;;20.60;14.20;;;0.60;99.90;;;;;;5062552;28;20068;-81
2022/12/12 00:53:40;;;;;;;22.35;14.10;;;0.60;99.90;;;;;;5081155;28;20493;-80
2022/12/12 00:56:06;;;;;;;20.20;13.57;;;0.60;99.90;;;;;;5083606;28;20040;-80
2022/12/12 00:58:32;;;;;;;20.75;13.70;;;0.60;99.90;;;;;;5079467;28;20056;-80
2022/12/12 01:01:05;;;;;;;20.08;12.90;;;0.60;99.90;;;;;;5082193;28;20067;-81
2022/12/12 01:03:36;;;;;;;19.23;12.85;;;0.60;99.90;;;;;;5078278;28;20040;-80
2022/12/12 01:06:02;;;;;;;18.67;12.95;;;0.60;99.90;;;;;;5078093;28;20032;-80
2022/12/12 01:08:28;;;;;;;19.80;13.55;;;0.60;99.90;;;;;;5077905;28;20519;-80
2022/12/12 01:10:54;;;;;;;20.48;13.80;;;0.60;99.90;;;;;;5079795;28;20493;-80
2022/12/12 01:13:20;;;;;;;21.92;13.77;;;0.60;99.90;;;;;;5083120;28;20083;-80
2022/12/12 01:15:46;;;;;;;17.70;12.73;;;0.50;99.90;;;;;;5065058;28;20063;-80
2022/12/12 01:18:12;;;;;;;20.08;13.40;;;0.50;99.90;;;;;;5048914;28;20056;-79
2022/12/12 01:20:40;;;;;;;21.38;14.02;;;0.50;99.90;;;;;;5044739;28;20546;-81
2022/12/12 01:23:06;;;;;;;20.02;13.57;;;0.50;99.90;;;;;;5055052;28;20055;-81
2022/12/12 01:25:32;;;;;;;19.88;13.30;;;0.50;99.90;;;;;;5062644;28;20044;-80
2022/12/12 01:27:58;;;;;;;19.67;13.52;;;0.50;99.90;;;;;;5059102;28;20509;-80
2022/12/12 01:30:24;;;;;;;19.52;13.65;;;0.50;99.90;;;;;;5082475;28;20041;-80
2022/12/12 01:32:50;;;;;;;19.60;14.05;;;0.50;99.90;;;;;;5086383;28;20051;-80
2022/12/12 01:35:16;;;;;;;20.40;13.63;;;0.50;99.90;;;;;;5085284;28;20045;-80
2022/12/12 01:37:42;;;;;;;20.63;14.02;;;0.50;99.90;;;;;;5059414;28;20118;-80
2022/12/12 01:40:20;;;;;;;18.13;13.38;;;0.50;99.90;;;;;;5057863;28;20037;-80
2022/12/12 01:42:46;;;;;;;18.40;13.10;;;0.50;99.90;;;;;;5053239;28;20414;-81
2022/12/12 01:45:48;;;;;;;20.63;13.30;;;0.50;99.90;;;;;;5074722;28;20051;-81
2022/12/12 01:48:14;;;;;;;21.15;13.57;;;0.50;99.90;;;;;;5066631;28;20044;-81
2022/12/12 01:50:42;;;;;;;20.38;13.57;;;0.50;99.90;;;;;;5061026;28;20055;-80
2022/12/12 01:53:12;;;;;;;20.02;13.88;;;0.50;99.90;;;;;;5091381;28;20071;-80
2022/12/12 01:55:37;;;;;;;19.45;13.45;;;0.50;99.90;;;;;;5051438;28;20072;-80
2022/12/12 01:58:03;;;;;;;20.25;14.60;;;0.50;99.90;;;;;;5057823;28;20079;-80
2022/12/12 02:00:30;;;;;;;19.58;13.63;;;0.50;99.90;;;;;;5069320;28;20032;-81
2022/12/12 02:02:56;;;;;;;20.02;13.95;;;0.50;99.90;;;;;;5079549;28;20096;-81
2022/12/12 02:05:33;;;;;;;21.08;14.10;;;0.50;99.90;;;;;;5090488;28;20043;-81
2022/12/12 02:08:03;;;;;;;21.35;14.32;;;0.50;99.90;;;;;;5094766;28;20063;-80
2022/12/12 02:10:29;;;;;;;21.05;14.10;;;0.50;99.90;;;;;;5087388;28;20052;-81
2022/12/12 02:13:01;;;;;;;21.17;13.73;;;0.50;99.90;;;;;;5077137;28;20090;-81
2022/12/12 02:15:37;;;;;;;21.20;14.38;;;0.50;99.90;;;;;;5099627;28;20047;-81
2022/12/12 02:18:08;;;;;;;19.92;14.27;;;0.50;99.90;;;;;;5083688;28;20477;-81
2022/12/12 02:20:47;;;;;;;20.23;13.13;;;0.50;99.90;;;;;;5077425;28;20044;-81
2022/12/12 02:23:18;;;;;;;19.75;13.20;;;0.50;99.90;;;;;;5076733;28;20105;-81
2022/12/12 02:26:12;;;;;;;20.65;13.77;;;0.60;99.90;;;;;;5080334;28;20074;-80
2022/12/12 02:28:52;;;;;;;19.42;13.98;;;0.60;99.90;;;;;;5064416;28;20045;-80
2022/12/12 02:31:31;;;;;;;20.10;14.10;;;0.60;99.90;;;;;;5061696;28;20049;-79
2022/12/12 02:34:09;;;;;;;20.85;13.40;;;0.50;99.90;;;;;;5073424;28;20048;-79
2022/12/12 02:36:42;;;;;;;20.73;13.88;;;0.60;99.90;;;;;;5059161;28;20045;-79
2022/12/12 02:39:18;;;;;;;19.85;13.50;;;0.60;99.90;;;;;;5086193;28;20389;-79
2022/12/12 02:42:24;;;;;;;20.35;13.70;;;0.60;99.90;;;;;;5067370;28;20036;-79
2022/12/12 02:44:57;;;;;;;17.95;12.63;;;0.60;99.90;;;;;;4977073;28;20073;-80
2022/12/12 02:47:38;;;;;;;22.55;14.50;;;0.50;99.90;;;;;;4966092;28;20134;-79
2022/12/12 02:50:06;;;;;;;19.13;13.20;;;0.60;99.90;;;;;;4978003;28;20070;-79
2022/12/12 02:52:33;;;;;;;20.83;13.95;;;0.60;99.90;;;;;;4958980;28;20093;-80
2022/12/12 02:54:59;;;;;;;18.90;13.30;;;0.60;99.90;;;;;;4974463;28;20055;-80
2022/12/12 02:57:25;;;;;;;20.67;14.82;;;0.60;99.90;;;;;;4974321;28;20090;-79
2022/12/12 03:00:10;;;;;;;21.35;14.25;;;0.50;99.90;;;;;;4973637;28;20420;-80
2022/12/12 03:02:36;;;;;;;19.33;13.13;;;0.50;99.90;;;;;;4974638;28;20141;-78
2022/12/12 03:08:43;;;;;;;21.08;13.93;;;0.50;99.90;;;;;;4975128;28;20046;-77
2022/12/12 03:11:17;;;;;;;20.48;13.75;;;0.50;99.90;;;;;;4986053;28;20063;-78
2022/12/12 03:13:51;;;;;;;20.15;13.52;;;0.50;99.90;;;;;;4979600;28;20158;-78
2022/12/12 03:16:43;;;;;;;20.85;14.32;;;0.50;99.90;;;;;;4974781;28;20121;-79
2022/12/12 03:19:15;;;;;;;21.13;14.55;;;0.50;99.90;;;;;;4961504;29;20129;-79
2022/12/12 03:22:02;;;;;;;19.38;13.77;;;0.50;99.90;;;;;;5064362;28;20091;-79
2022/12/12 03:25:02;;;;;;;18.95;14.02;;;0.50;99.90;;;;;;5060431;28;20041;-79
2022/12/12 03:27:34;;;;;;;19.20;13.55;;;0.50;99.90;;;;;;5077187;28;20051;-80
2022/12/12 03:30:15;;;;;;;19.20;13.70;;;0.50;99.90;;;;;;5072272;28;20181;-79
2022/12/12 03:33:05;;;;;;;20.63;14.30;;;0.50;99.90;;;;;;5069483;28;20393;-79
2022/12/12 03:35:37;;;;;;;22.08;14.10;;;0.50;99.90;;;;;;5084150;28;20366;-79
2022/12/12 03:38:14;;;;;;;21.17;13.30;;;0.50;99.90;;;;;;5079233;28;20048;-80
2022/12/12 03:40:50;;;;;;;20.45;14.02;;;0.50;99.90;;;;;;5062237;28;20052;-80
2022/12/12 03:43:20;;;;;;;21.50;14.30;;;0.50;99.90;;;;;;5069850;28;20040;-80
2022/12/12 03:46:23;;;;;;;20.98;14.15;;;0.50;99.90;;;;;;5053884;28;20078;-79
2022/12/12 03:49:07;;;;;;;21.52;14.13;;;0.50;99.90;;;;;;5078808;28;20048;-79
2022/12/12 03:51:41;;;;;;;20.15;14.68;;;0.50;99.90;;;;;;5061634;28;20119;-80
2022/12/12 03:54:25;;;;;;;18.95;13.18;;;0.50;99.90;;;;;;5071459;28;20458;-80
2022/12/12 03:57:06;;;;;;;17.63;12.75;;;0.50;99.90;;;;;;5079485;28;20044;-80
2022/12/12 03:59:38;;;;;;;18.67;13.35;;;0.50;99.90;;;;;;5075785;28;20071;-80
2022/12/12 04:02:15;;;;;;;19.23;13.68;;;0.50;99.90;;;;;;5070654;28;20064;-80
2022/12/12 04:05:26;;;;;;;20.17;13.27;;;0.50;99.90;;;;;;5054996;28;20052;-79
2022/12/12 04:08:00;;;;;;;18.67;12.98;;;0.50;99.90;;;;;;5070664;28;20354;-79
2022/12/12 04:13:22;;;;;;;18.17;13.23;;;0.50;99.90;;;;;;5069696;28;20050;-80
2022/12/12 04:15:58;;;;;;;21.30;13.90;;;0.50;99.90;;;;;;5077354;28;20124;-80
2022/12/12 04:18:36;;;;;;;19.88;13.52;;;0.50;99.90;;;;;;5067696;28;20032;-80
2022/12/12 04:24:05;;;;;;;21.02;14.10;;;0.50;99.90;;;;;;5070136;28;20049;-79
2022/12/12 04:26:39;;;;;;;19.38;14.20;;;0.50;99.90;;;;;;5070551;28;20040;-78
2022/12/12 04:29:42;;;;;;;20.05;13.50;;;0.50;99.90;;;;;;5071581;28;20548;-77
2022/12/12 04:32:17;;;;;;;19.58;13.63;;;0.50;99.90;;;;;;5052269;28;20040;-77
2022/12/12 04:35:02;;;;;;;19.65;13.57;;;0.50;99.90;;;;;;5060639;28;20117;-77
2022/12/12 04:37:34;;;;;;;20.00;14.77;;;0.50;99.90;;;;;;5071448;28;20098;-77
2022/12/12 04:40:04;;;;;;;19.38;13.88;;;0.50;99.90;;;;;;5075239;28;20098;-77
2022/12/12 04:42:36;;;;;;;18.98;13.43;;;0.50;99.90;;;;;;5070778;28;20413;-77
2022/12/12 04:45:10;;;;;;;21.00;13.40;;;0.50;99.90;;;;;;5063572;28;20044;-78
2022/12/12 04:47:38;;;;;;;20.27;13.75;;;0.50;99.90;;;;;;5048071;28;20064;-78
2022/12/12 04:50:07;;;;;;;20.63;14.15;;;0.50;99.90;;;;;;5063990;28;20401;-78
2022/12/12 04:52:33;;;;;;;21.08;14.30;;;0.50;99.90;;;;;;5062493;28;20048;-78
2022/12/12 04:55:08;;;;;;;20.35;14.13;;;0.50;99.90;;;;;;5073554;28;20124;-78
2022/12/12 04:57:40;;;;;;;19.65;14.27;;;0.50;99.90;;;;;;5072312;28;20052;-78
2022/12/12 05:00:11;;;;;;;21.05;14.50;;;0.50;99.90;;;;;;5054123;28;20048;-78
2022/12/12 05:02:50;;;;;;;20.77;14.63;;;0.50;99.90;;;;;;5060949;28;20040;-77
2022/12/12 05:05:27;;;;;;;21.80;15.07;;;0.50;99.90;;;;;;5042022;28;20073;-77
2022/12/12 05:08:06;;;;;;;22.80;15.68;;;0.50;99.90;;;;;;5066019;28;20486;-77
2022/12/12 05:10:33;;;;;;;26.08;15.23;;;0.50;99.90;;;;;;5053760;28;20482;-77
2022/12/12 05:12:59;;;;;;;24.00;15.55;;;0.50;99.90;;;;;;5059905;28;20060;-77
2022/12/12 05:15:27;;;;;;;22.02;15.43;;;0.50;99.90;;;;;;5057253;28;20052;-77
2022/12/12 05:18:11;;;;;;;22.30;15.73;;;0.50;99.90;;;;;;5071707;28;20048;-77
2022/12/12 05:20:37;;;;;;;22.75;15.50;;;0.40;99.90;;;;;;5072685;28;20112;-76
2022/12/12 05:23:03;;;;;;;22.80;15.93;;;0.50;99.90;;;;;;5074710;28;20041;-76
2022/12/12 05:25:29;;;;;;;20.90;15.13;;;0.50;99.90;;;;;;5076059;28;20394;-76
2022/12/12 05:27:54;;;;;;;22.88;15.43;;;0.50;99.90;;;;;;5080687;28;20043;-77
2022/12/12 05:30:20;;;;;;;20.88;15.30;;;0.40;99.90;;;;;;5057096;28;20060;-77
2022/12/12 05:32:46;;;;;;;24.10;16.85;;;0.50;99.90;;;;;;5041067;28;20597;-77
2022/12/12 05:35:12;;;;;;;24.85;16.25;;;0.50;99.90;;;;;;5039314;28;20127;-78
2022/12/12 05:37:38;;;;;;;22.95;15.50;;;0.50;99.90;;;;;;5069185;28;20040;-77
2022/12/12 05:40:07;;;;;;;23.42;16.27;;;0.50;99.90;;;;;;5058927;28;20119;-77
2022/12/12 05:42:33;;;;;;;19.70;15.32;;;0.50;99.90;;;;;;5027640;28;20049;-78
2022/12/12 05:44:58;;;;;;;23.52;16.45;;;0.50;99.90;;;;;;5052937;28;20078;-78
2022/12/12 05:47:24;;;;;;;24.17;15.63;;;0.50;99.90;;;;;;5054633;28;20041;-79
2022/12/12 05:49:50;;;;;;;23.30;16.60;;;0.50;99.90;;;;;;5068520;28;20052;-79
2022/12/12 05:52:16;;;;;;;23.50;16.00;;;0.50;99.90;;;;;;5073366;28;20085;-79
2022/12/12 05:54:41;;;;;;;22.60;16.00;;;0.50;99.90;;;;;;5056538;28;20049;-79
2022/12/12 05:57:08;;;;;;;25.40;16.83;;;0.40;99.90;;;;;;5065564;28;20033;-78
2022/12/12 05:59:33;;;;;;;25.65;17.55;;;0.50;99.90;;;;;;5055995;28;20114;-78
2022/12/12 06:01:59;;;;;;;23.70;16.58;;;0.40;99.90;;;;;;5072246;28;20036;-78
2022/12/12 06:04:25;;;;;;;27.80;16.75;;;0.50;99.90;;;;;;5062759;28;20054;-78
2022/12/12 06:06:50;;;;;;;24.50;16.50;;;0.50;99.90;;;;;;5054393;28;20486;-79
2022/12/12 06:09:16;;;;;;;22.25;16.17;;;0.50;99.90;;;;;;5079251;28;20052;-78
2022/12/12 06:11:42;;;;;;;22.38;16.08;;;0.50;99.90;;;;;;5053159;28;20428;-78
2022/12/12 06:14:08;;;;;;;23.30;15.85;;;0.50;99.90;;;;;;5021176;28;20045;-78
2022/12/12 06:16:34;;;;;;;22.70;16.33;;;0.50;99.90;;;;;;5052789;28;20032;-78
2022/12/12 06:19:00;;;;;;;21.40;16.23;;;0.50;99.90;;;;;;5079043;28;20068;-78
2022/12/12 06:21:26;;;;;;;21.90;15.95;;;0.50;99.90;;;;;;5067116;28;20095;-79
2022/12/12 06:23:51;;;;;;;21.58;15.73;;;0.50;99.90;;;;;;5057636;28;20044;-79
2022/12/12 06:26:19;;;;;;;23.48;16.05;;;0.50;99.90;;;;;;5074402;28;20052;-78
2022/12/12 06:28:45;;;;;;;22.42;16.13;;;0.50;99.90;;;;;;5047208;28;20045;-78
2022/12/12 06:31:12;;;;;;;23.90;16.05;;;0.50;99.90;;;;;;5067881;28;20124;-78
2022/12/12 06:33:41;;;;;;;21.90;15.77;;;0.50;99.90;;;;;;5045776;28;20036;-78
2022/12/12 06:36:15;;;;;;;21.58;15.40;;;0.40;99.90;;;;;;5060646;28;20059;-79
2022/12/12 06:38:41;;;;;;;22.13;15.35;;;0.50;99.90;;;;;;5085490;28;20096;-78
2022/12/12 06:41:12;;;;;;;19.55;14.48;;;0.50;99.90;;;;;;5041510;28;20056;-78
2022/12/12 06:43:38;;;;;;;22.48;15.52;;;0.40;99.90;;;;;;5037809;28;20045;-78
2022/12/12 06:46:06;;;;;;;20.92;14.90;;;0.50;99.90;;;;;;5054556;28;20445;-78
2022/12/12 06:48:33;;;;;;;23.20;15.32;;;0.50;99.90;;;;;;5054655;28;20534;-77
2022/12/12 06:51:03;;;;;;;21.33;15.43;;;0.50;99.90;;;;;;5073267;28;20058;-77
2022/12/12 06:53:29;;;;;;;20.75;15.10;;;0.50;99.90;;;;;;5073688;28;20044;-77
2022/12/12 06:55:55;;;;;;;19.88;14.40;;;0.50;99.90;;;;;;5091357;28;20489;-78
2022/12/12 06:58:20;;;;;;;21.42;14.80;;;0.50;99.90;;;;;;5058410;28;20048;-78
2022/12/12 07:00:50;;;;;;;21.80;14.82;;;0.50;99.90;;;;;;5056405;28;20049;-78
2022/12/12 07:03:16;;;;;;;19.55;13.85;;;0.50;99.90;;;;;;5069523;28;20047;-79
2022/12/12 07:05:44;;;;;;;19.10;13.90;;;0.50;99.90;;;;;;5083466;28;20131;-79
2022/12/12 07:08:09;;;;;;;18.70;13.57;;;0.50;99.90;;;;;;5069007;28;20098;-79
2022/12/12 07:10:35;;;;;;;18.30;13.40;;;0.50;99.90;;;;;;5073985;28;20053;-79
2022/12/12 07:13:01;;;;;;;18.80;13.57;;;0.50;99.90;;;;;;5077174;28;20040;-79
2022/12/12 07:15:27;;;;;;;20.33;13.88;;;0.50;99.90;;;;;;5081464;28;20040;-79
2022/12/12 07:17:53;;;;;;;19.30;14.43;;;0.40;99.90;;;;;;5074084;28;20386;-79
2022/12/12 07:20:19;;;;;;;18.10;13.52;;;0.40;99.90;;;;;;5060384;28;20033;-79
2022/12/12 07:22:45;;;;;;;18.27;13.57;;;0.40;99.90;;;;;;5041546;28;20116;-79
2022/12/12 07:25:11;;;;;;;18.17;13.13;;;0.40;99.90;;;;;;5078063;28;20084;-79
2022/12/12 07:27:37;;;;;;;18.40;12.45;;;0.30;99.90;;;;;;5078040;28;20533;-79
2022/12/12 07:30:02;;;;;;;20.45;13.05;;;0.30;99.90;;;;;;5062400;28;20548;-79
2022/12/12 07:32:28;;;;;;;18.88;13.35;;;0.30;99.90;;;;;;5078266;28;20044;-79
2022/12/12 07:34:54;;;;;;;19.17;12.93;;;0.30;99.90;;;;;;5059311;28;20063;-78
2022/12/12 07:37:19;;;;;;;17.90;13.32;;;0.30;99.90;;;;;;5067473;28;20051;-79
2022/12/12 07:39:45;;;;;;;18.23;13.38;;;0.20;99.90;;;;;;5081533;28;20072;-78
2022/12/12 07:42:11;;;;;;;20.15;14.27;;;0.20;99.90;;;;;;5080903;28;20186;-78
2022/12/12 07:44:37;;;;;;;20.70;15.05;;;0.10;99.90;;;;;;5075542;28;20064;-80
2022/12/12 07:47:03;;;;;;;26.00;16.95;;;0.10;99.90;;;;;;5066017;28;20141;-81
2022/12/12 07:49:28;;;;;;;27.98;17.98;;;0.00;99.90;;;;;;5078505;28;20505;-80
2022/12/12 07:51:54;;;;;;;29.42;19.40;;;0.10;99.90;;;;;;5034602;28;20036;-79
2022/12/12 07:54:20;;;;;;;28.67;18.10;;;0.10;99.90;;;;;;5062997;28;20494;-80
2022/12/12 07:56:46;;;;;;;30.77;19.80;;;0.00;99.90;;;;;;5062911;28;20258;-81
2022/12/12 07:59:12;;;;;;;30.05;18.98;;;0.00;99.90;;;;;;5052496;28;20037;-77
2022/12/12 08:01:37;;;;;;;31.83;19.67;;;0.00;99.90;;;;;;5064298;28;20048;-77
2022/12/12 08:04:04;;;;;;;31.42;20.30;;;0.00;99.90;;;;;;5036896;28;20446;-77
2022/12/12 08:06:30;;;;;;;32.95;19.70;;;0.00;99.90;;;;;;5071674;28;20047;-74
2022/12/12 08:08:55;;;;;;;33.67;21.08;;;0.00;99.90;;;;;;5046621;28;20106;-79
2022/12/12 08:11:23;;;;;;;36.97;20.65;;;0.00;99.90;;;;;;5072252;28;20076;-74
2022/12/12 08:13:49;;;;;;;35.20;21.97;;;0.10;99.90;;;;;;5075395;28;20546;-77
2022/12/12 08:16:27;;;;;;;30.60;20.88;;;0.10;99.90;;;;;;5053076;28;20602;-77
2022/12/12 08:18:55;;;;;;;34.20;21.92;;;0.10;99.90;;;;;;5050100;28;20068;-77
2022/12/12 08:21:21;;;;;;;38.47;23.10;;;0.10;99.90;;;;;;5072841;28;20115;-78
2022/12/12 08:23:46;;;;;;;35.97;21.83;;;0.20;99.90;;;;;;5086813;28;20177;-76
2022/12/12 08:26:15;;;;;;;42.65;25.83;;;0.10;99.90;;;;;;5064675;28;20119;-76
2022/12/12 08:28:48;;;;;;;42.80;24.92;;;0.20;99.90;;;;;;5072545;28;20040;-77
2022/12/12 08:31:15;;;;;;;41.38;24.13;;;0.20;99.90;;;;;;5067167;28;20040;-77
2022/12/12 08:33:41;;;;;;;39.57;24.37;;;0.30;99.90;;;;;;5067624;28;20047;-77
2022/12/12 08:36:12;;;;;;;42.50;25.73;;;0.30;99.90;;;;;;5059509;28;20033;-78
2022/12/12 08:38:39;;;;;;;48.95;26.98;;;0.30;99.90;;;;;;5085406;28;20040;-77
2022/12/12 08:41:05;;;;;;;42.03;26.15;;;0.30;99.90;;;;;;5040611;28;20048;-77
2022/12/12 08:43:30;;;;;;;42.50;25.65;;;0.40;99.90;;;;;;5053188;28;20116;-78
2022/12/12 08:46:00;;;;;;;45.95;26.55;;;0.40;99.90;;;;;;5053138;28;20120;-78
2022/12/12 08:48:26;;;;;;;43.40;26.63;;;0.40;99.90;;;;;;5046428;28;20443;-78
2022/12/12 08:50:52;;;;;;;42.33;26.42;;;0.40;99.90;;;;;;5047851;28;20567;-78
2022/12/12 08:53:17;;;;;;;46.13;27.08;;;0.40;99.90;;;;;;5071869;28;20068;-78
2022/12/12 08:55:43;;;;;;;46.72;27.45;;;0.40;99.90;;;;;;5054130;28;20044;-78
2022/12/12 08:58:09;;;;;;;46.45;26.77;;;0.50;99.90;;;;;;5059697;28;20097;-78
2022/12/12 09:00:35;;;;;;;44.35;26.50;;;0.50;99.90;;;;;;5076899;28;20074;-77
2022/12/12 09:03:01;;;;;;;45.35;27.25;;;0.50;99.90;;;;;;5071096;28;20520;-78
2022/12/12 09:05:27;;;;;;;43.15;25.70;;;0.60;99.90;;;;;;5058670;28;20032;-78
2022/12/12 09:07:52;;;;;;;46.55;27.08;;;0.60;99.90;;;;;;5069074;28;20059;-78
2022/12/12 09:10:18;;;;;;;40.75;25.13;;;0.70;99.90;;;;;;5055060;28;20044;-78
2022/12/12 09:12:43;;;;;;;41.63;26.33;;;0.70;99.90;;;;;;5081533;28;20068;-78
2022/12/12 09:15:09;;;;;;;44.47;26.35;;;0.70;99.90;;;;;;5060141;28;20482;-79
2022/12/12 09:17:35;;;;;;;45.78;25.85;;;0.70;99.90;;;;;;5090348;28;20048;-78
2022/12/12 09:20:01;;;;;;;41.30;25.40;;;0.70;99.90;;;;;;5078977;28;20045;-78
2022/12/12 09:22:27;;;;;;;42.35;26.08;;;0.80;99.90;;;;;;5062140;28;20075;-78
2022/12/12 09:24:53;;;;;;;42.33;25.30;;;0.80;99.90;;;;;;5092532;28;20072;-78
2022/12/12 09:27:18;;;;;;;41.13;25.40;;;0.70;99.90;;;;;;5091678;28;20397;-77
2022/12/12 09:29:44;;;;;;;43.03;26.08;;;0.70;99.90;;;;;;5095885;28;20050;-78
2022/12/12 09:32:10;;;;;;;39.22;25.08;;;0.80;99.90;;;;;;5095881;28;20063;-78
2022/12/12 09:34:36;;;;;;;45.50;25.90;;;0.80;99.90;;;;;;5091583;28;20072;-78
2022/12/12 09:37:02;;;;;;;44.78;26.20;;;0.80;99.90;;;;;;5061079;28;20083;-77
2022/12/12 09:39:28;;;;;;;41.72;25.27;;;0.90;99.90;;;;;;5084185;28;20510;-78
2022/12/12 09:41:54;;;;;;;43.72;25.73;;;0.90;99.90;;;;;;5073915;28;20063;-78
2022/12/12 09:44:21;;;;;;;40.53;25.40;;;1.00;99.90;;;;;;5090076;28;20083;-77
2022/12/12 09:46:59;;;;;;;39.38;24.00;;;1.00;99.90;;;;;;5094253;28;20036;-77
2022/12/12 09:49:51;;;;;;;38.65;24.98;;;1.00;99.90;;;;;;5089693;28;20036;-78
2022/12/12 09:52:22;;;;;;;39.70;24.60;;;1.10;99.90;;;;;;5063974;28;20127;-77
2022/12/12 09:54:48;;;;;;;42.00;25.52;;;1.20;99.90;;;;;;5088176;28;20093;-77
2022/12/12 09:57:31;;;;;;;40.15;24.35;;;1.10;99.90;;;;;;5095290;28;20036;-77
2022/12/12 10:00:08;;;;;;;44.08;25.20;;;1.20;99.90;;;;;;5075461;28;20047;-77
2022/12/12 10:03:01;;;;;;;40.53;25.65;;;1.30;99.90;;;;;;5084268;28;20047;-77
2022/12/12 10:05:33;;;;;;;39.75;24.45;;;1.30;99.90;;;;;;5087588;28;20040;-76
2022/12/12 10:08:19;;;;;;;40.65;25.48;;;1.30;99.90;;;;;;5076227;28;20040;-76
2022/12/12 10:10:49;;;;;;;44.42;26.55;;;1.30;99.90;;;;;;5095303;28;20052;-76
2022/12/12 10:13:23;;;;;;;41.70;25.52;;;1.40;99.90;;;;;;5095318;28;20048;-77
2022/12/12 10:15:52;;;;;;;40.70;26.10;;;1.40;99.90;;;;;;5092662;28;20401;-75
2022/12/12 10:18:33;;;;;;;40.80;24.92;;;1.40;99.90;;;;;;5058093;28;20382;-76
2022/12/12 10:21:05;;;;;;;40.38;26.10;;;1.40;99.90;;;;;;5090207;28;20484;-76
2022/12/12 10:23:52;;;;;;;38.42;24.75;;;1.50;99.90;;;;;;5092747;28;20040;-76
2022/12/12 10:26:26;;;;;;;39.45;24.17;;;1.50;99.90;;;;;;5065968;28;20044;-76
2022/12/12 10:28:56;;;;;;;39.92;24.20;;;1.50;99.90;;;;;;5094168;28;20051;-76
2022/12/12 10:31:53;;;;;;;39.22;24.25;;;1.50;99.90;;;;;;5094741;28;20080;-76
2022/12/12 10:34:30;;;;;;;39.38;24.50;;;1.60;99.90;;;;;;5095344;28;20434;-76
2022/12/12 10:37:06;;;;;;;37.42;24.15;;;1.60;99.90;;;;;;5093994;28;20404;-76
2022/12/12 10:39:45;;;;;;;36.55;23.42;;;1.60;99.90;;;;;;5093608;28;20048;-76
2022/12/12 10:42:39;;;;;;;37.17;24.48;;;1.70;99.90;;;;;;5076308;28;20051;-76
2022/12/12 10:45:45;;;;;;;38.90;23.98;;;1.60;99.90;;;;;;5092337;28;20081;-77
2022/12/12 10:48:11;;;;;;;42.80;23.75;;;1.60;99.90;;;;;;5075195;28;20072;-76
2022/12/12 10:50:42;;;;;;;41.75;25.30;;;1.60;99.90;;;;;;5094256;28;20099;-76
2022/12/12 10:53:09;;;;;;;41.33;26.58;;;1.40;99.90;;;;;;5059244;28;20765;-77
2022/12/12 10:55:45;;;;;;;38.70;25.38;;;1.60;99.90;;;;;;5090620;28;20059;-77
2022/12/12 10:58:11;;;;;;;42.03;27.05;;;1.70;99.90;;;;;;5085415;28;20046;-76
2022/12/12 11:00:40;;;;;;;43.08;27.77;;;1.60;99.90;;;;;;5074115;28;20452;-77
2022/12/12 11:03:23;;;;;;;39.75;26.55;;;1.70;99.90;;;;;;5087186;28;20070;-77
2022/12/12 11:05:49;;;;;;;42.95;26.45;;;1.70;99.90;;;;;;5051149;28;20051;-76
2022/12/12 11:08:24;;;;;;;44.85;27.42;;;1.60;99.90;;;;;;5083927;28;20378;-76
2022/12/12 11:11:20;;;;;;;41.88;27.80;;;1.60;99.90;;;;;;5054742;28;20132;-76
2022/12/12 11:13:50;;;;;;;45.40;27.63;;;1.70;99.90;;;;;;5079458;28;20060;-76
2022/12/12 11:16:40;;;;;;;47.15;28.63;;;1.80;99.90;;;;;;5088019;28;20044;-77
2022/12/12 11:19:26;;;;;;;41.70;26.73;;;1.80;99.90;;;;;;5071741;28;20482;-77
2022/12/12 11:21:54;;;;;;;42.47;27.15;;;1.80;99.90;;;;;;5094290;28;20097;-77
2022/12/12 11:24:28;;;;;;;44.03;28.02;;;1.80;99.90;;;;;;5086502;28;20040;-77
2022/12/12 11:27:03;;;;;;;49.97;28.90;;;1.80;99.90;;;;;;5071435;28;20050;-77
2022/12/12 11:29:38;;;;;;;43.33;27.63;;;1.80;99.90;;;;;;5071581;28;20093;-77
2022/12/12 11:32:10;;;;;;;44.90;27.35;;;1.80;99.90;;;;;;5075108;28;20036;-77
2022/12/12 11:34:38;;;;;;;45.38;28.20;;;1.90;99.90;;;;;;5094328;28;20093;-77
2022/12/12 11:37:04;;;;;;;48.75;27.63;;;1.90;99.90;;;;;;5089182;28;20051;-78
2022/12/12 11:39:38;;;;;;;45.17;28.10;;;1.90;99.90;;;;;;5090246;28;20070;-77
2022/12/12 11:42:04;;;;;;;45.42;27.17;;;1.80;99.90;;;;;;5090230;28;20036;-77
2022/12/12 11:44:36;;;;;;;48.10;30.27;;;1.90;99.90;;;;;;5069595;28;20051;-77
2022/12/12 11:47:25;;;;;;;46.83;29.05;;;2.00;99.90;;;;;;5059061;28;20079;-77
2022/12/12 11:49:57;;;;;;;49.65;29.65;;;2.00;99.90;;;;;;5066559;28;20044;-77
2022/12/12 11:52:31;;;;;;;46.38;28.80;;;2.00;99.90;;;;;;5066894;28;20485;-78
2022/12/12 11:54:58;;;;;;;45.25;28.60;;;2.00;99.90;;;;;;5081814;28;20385;-77
2022/12/12 11:57:47;;;;;;;49.72;29.83;;;2.00;99.90;;;;;;5057322;28;20054;-77
2022/12/12 12:00:22;;;;;;;45.72;28.15;;;1.90;99.90;;;;;;5070809;28;20052;-77
2022/12/12 12:03:07;;;;;;;49.60;29.55;;;2.00;99.90;;;;;;5076438;28;20032;-77
2022/12/12 12:06:15;;;;;;;47.47;26.88;;;2.00;99.90;;;;;;5070784;28;20083;-77
2022/12/12 12:08:47;;;;;;;;;;;1.90;99.90;;;;;;5003660;28;20137;-77
2022/12/12 12:11:23;;;;;;;48.78;27.95;;;1.90;99.90;;;;;;4993100;28;20421;-77
2022/12/12 12:13:57;;;;;;;48.22;28.70;;;2.00;99.90;;;;;;5010110;28;20041;-77
2022/12/12 12:16:23;;;;;;;49.85;31.30;;;2.00;99.90;;;;;;5006267;28;20600;-77
2022/12/12 12:19:05;;;;;;;48.33;29.80;;;1.90;99.90;;;;;;5006556;28;20058;-77
2022/12/12 12:21:49;;;;;;;48.88;28.85;;;2.10;99.90;;;;;;5011641;28;20046;-77
2022/12/12 12:24:46;;;;;;;48.63;28.40;;;2.00;99.90;;;;;;5010525;28;20409;-77
2022/12/12 12:27:27;;;;;;;43.03;26.92;;;2.10;99.90;;;;;;4995304;28;20077;-77
2022/12/12 12:30:05;;;;;;;44.97;27.50;;;2.00;99.90;;;;;;4998749;28;20116;-77
2022/12/12 12:32:54;;;;;;;49.92;27.85;;;2.00;99.90;;;;;;4995789;28;20054;-77
2022/12/12 12:35:26;;;;;;;47.42;27.77;;;2.00;99.90;;;;;;4989943;28;20050;-76
2022/12/12 12:38:24;;;;;;;45.80;27.50;;;1.90;99.90;;;;;;5012111;28;20089;-76
2022/12/12 12:41:19;;;;;;;45.05;26.92;;;2.00;99.90;;;;;;4959014;28;20051;-76
2022/12/12 12:44:28;;;;;;;46.22;27.67;;;2.00;99.90;;;;;;4978548;28;20058;-76
2022/12/12 12:47:28;;;;;;;42.38;25.80;;;2.00;99.90;;;;;;5064215;28;20151;-75
2022/12/12 12:50:16;;;;;;;42.78;24.77;;;2.10;99.90;;;;;;5052848;28;20131;-76
2022/12/12 12:52:50;;;;;;;;;;;2.10;99.90;;;;;;5039345;28;20045;-77
2022/12/12 12:55:20;;;;;;;39.78;23.83;;;2.10;99.90;;;;;;5039811;28;20288;-78
2022/12/12 12:57:49;;;;;;;41.33;23.98;;;2.10;99.90;;;;;;5067332;28;20366;-77
2022/12/12 13:00:17;;;;;;;;;;;2.10;99.90;;;;;;5063000;28;20041;-75
2022/12/12 13:03:17;;;;;;;39.53;24.17;;;2.10;99.90;;;;;;5057692;28;19927;-77
2022/12/12 13:05:49;;;;;;;39.17;23.75;;;2.10;99.90;;;;;;5048921;28;20041;-79
2022/12/12 13:08:30;;;;;;;38.80;23.52;;;2.20;99.90;;;;;;5048052;28;20123;-78
2022/12/12 13:11:37;;;;;;;39.20;23.92;;;2.10;99.90;;;;;;5069182;28;20057;-79
2022/12/12 13:14:20;;;;;;;37.60;23.30;;;2.20;99.90;;;;;;5055615;28;20121;-78